sensor_id;sensor_type;location;lat;lon;timestamp;P1;durP1;ratioP1;P2;durP2;ratioP2
9330;SDS011;4704;50.470;12.072;2023-07-28T00:01:55;1.42;;;1.30;;
9330;SDS011;4704;50.470;12.072;2023-07-28T00:04:22;2.95;;;1.45;;
9330;SDS011;4704;50.470;12.072;2023-07-28T00:06:51;1.65;;;1.33;;
9330;SDS011;4704;50.470;12.072;2023-07-28T00:09:19;1.50;;;1.40;;
9330;SDS011;4704;50.470;12.072;2023-07-28T00:11:48;1.30;;;1.20;;
9330;SDS011;4704;50.470;12.072;2023-07-28T00:14:16;1.50;;;1.40;;
9330;SDS011;4704;50.470;12.072;2023-07-28T00:16:43;2.13;;;1.55;;
9330;SDS011;4704;50.470;12.072;2023-07-28T00:19:11;1.92;;;1.48;;
9330;SDS011;4704;50.470;12.072;2023-07-28T00:21:39;1.70;;;1.52;;
9330;SDS011;4704;50.470;12.072;2023-07-28T00:24:08;1.70;;;1.60;;
9330;SDS011;4704;50.470;12.072;2023-07-28T00:26:35;1.45;;;1.35;;
9330;SDS011;4704;50.470;12.072;2023-07-28T00:29:03;1.33;;;1.23;;
9330;SDS011;4704;50.470;12.072;2023-07-28T00:31:31;1.70;;;1.52;;
9330;SDS011;4704;50.470;12.072;2023-07-28T00:33:59;1.67;;;1.35;;
9330;SDS011;4704;50.470;12.072;2023-07-28T00:36:27;1.60;;;1.40;;
9330;SDS011;4704;50.470;12.072;2023-07-28T00:38:54;1.60;;;1.50;;
9330;SDS011;4704;50.470;12.072;2023-07-28T00:41:23;1.92;;;1.30;;
9330;SDS011;4704;50.470;12.072;2023-07-28T00:43:51;1.48;;;1.38;;
9330;SDS011;4704;50.470;12.072;2023-07-28T00:46:19;1.55;;;1.45;;
9330;SDS011;4704;50.470;12.072;2023-07-28T00:48:46;1.73;;;1.48;;
9330;SDS011;4704;50.470;12.072;2023-07-28T00:51:14;1.90;;;1.48;;
9330;SDS011;4704;50.470;12.072;2023-07-28T00:53:42;1.50;;;1.40;;
9330;SDS011;4704;50.470;12.072;2023-07-28T00:56:10;1.55;;;1.40;;
9330;SDS011;4704;50.470;12.072;2023-07-28T00:58:39;2.55;;;1.35;;
9330;SDS011;4704;50.470;12.072;2023-07-28T01:01:07;1.40;;;1.30;;
9330;SDS011;4704;50.470;12.072;2023-07-28T01:03:35;1.58;;;1.48;;
9330;SDS011;4704;50.470;12.072;2023-07-28T01:06:06;1.73;;;1.48;;
9330;SDS011;4704;50.470;12.072;2023-07-28T01:08:37;1.50;;;1.40;;
9330;SDS011;4704;50.470;12.072;2023-07-28T01:11:06;1.60;;;1.23;;
9330;SDS011;4704;50.470;12.072;2023-07-28T01:13:33;1.60;;;1.33;;
9330;SDS011;4704;50.470;12.072;2023-07-28T01:16:02;1.92;;;1.30;;
9330;SDS011;4704;50.470;12.072;2023-07-28T01:18:30;1.70;;;1.60;;
9330;SDS011;4704;50.470;12.072;2023-07-28T01:20:58;1.50;;;1.40;;
9330;SDS011;4704;50.470;12.072;2023-07-28T01:23:30;1.52;;;1.42;;
9330;SDS011;4704;50.470;12.072;2023-07-28T01:26:03;2.05;;;1.70;;
9330;SDS011;4704;50.470;12.072;2023-07-28T01:28:33;1.40;;;1.30;;
9330;SDS011;4704;50.470;12.072;2023-07-28T01:31:01;1.48;;;1.38;;
9330;SDS011;4704;50.470;12.072;2023-07-28T01:33:29;1.15;;;1.10;;
9330;SDS011;4704;50.470;12.072;2023-07-28T01:35:57;1.73;;;1.30;;
9330;SDS011;4704;50.470;12.072;2023-07-28T01:38:26;1.40;;;1.30;;
9330;SDS011;4704;50.470;12.072;2023-07-28T01:40:53;1.33;;;1.23;;
9330;SDS011;4704;50.470;12.072;2023-07-28T01:43:21;1.58;;;1.20;;
9330;SDS011;4704;50.470;12.072;2023-07-28T01:45:50;1.40;;;1.30;;
9330;SDS011;4704;50.470;12.072;2023-07-28T01:48:18;1.58;;;1.48;;
9330;SDS011;4704;50.470;12.072;2023-07-28T01:50:45;1.17;;;1.17;;
9330;SDS011;4704;50.470;12.072;2023-07-28T01:53:13;1.58;;;1.30;;
9330;SDS011;4704;50.470;12.072;2023-07-28T01:55:40;1.55;;;1.30;;
9330;SDS011;4704;50.470;12.072;2023-07-28T01:58:08;2.08;;;1.10;;
9330;SDS011;4704;50.470;12.072;2023-07-28T02:00:36;1.20;;;1.10;;
9330;SDS011;4704;50.470;12.072;2023-07-28T02:03:05;1.15;;;0.90;;
9330;SDS011;4704;50.470;12.072;2023-07-28T02:05:33;1.55;;;1.13;;
9330;SDS011;4704;50.470;12.072;2023-07-28T02:08:01;1.33;;;1.23;;
9330;SDS011;4704;50.470;12.072;2023-07-28T02:10:29;1.55;;;1.00;;
9330;SDS011;4704;50.470;12.072;2023-07-28T02:12:57;1.20;;;1.10;;
9330;SDS011;4704;50.470;12.072;2023-07-28T02:15:25;1.00;;;1.00;;
9330;SDS011;4704;50.470;12.072;2023-07-28T02:17:52;1.77;;;1.13;;
9330;SDS011;4704;50.470;12.072;2023-07-28T02:20:21;1.70;;;1.00;;
9330;SDS011;4704;50.470;12.072;2023-07-28T02:22:49;1.10;;;0.90;;
9330;SDS011;4704;50.470;12.072;2023-07-28T02:25:16;1.60;;;0.90;;
9330;SDS011;4704;50.470;12.072;2023-07-28T02:27:44;0.90;;;0.90;;
9330;SDS011;4704;50.470;12.072;2023-07-28T02:30:11;1.00;;;1.00;;
9330;SDS011;4704;50.470;12.072;2023-07-28T02:32:39;1.02;;;0.80;;
9330;SDS011;4704;50.470;12.072;2023-07-28T02:35:07;0.90;;;0.90;;
9330;SDS011;4704;50.470;12.072;2023-07-28T02:37:37;1.10;;;1.00;;
9330;SDS011;4704;50.470;12.072;2023-07-28T02:40:05;1.33;;;0.90;;
9330;SDS011;4704;50.470;12.072;2023-07-28T02:42:33;1.45;;;0.80;;
9330;SDS011;4704;50.470;12.072;2023-07-28T02:45:01;1.15;;;1.00;;
9330;SDS011;4704;50.470;12.072;2023-07-28T02:47:28;1.23;;;0.80;;
9330;SDS011;4704;50.470;12.072;2023-07-28T02:49:56;1.10;;;1.00;;
9330;SDS011;4704;50.470;12.072;2023-07-28T02:52:24;1.02;;;0.90;;
9330;SDS011;4704;50.470;12.072;2023-07-28T02:54:53;1.40;;;1.00;;
9330;SDS011;4704;50.470;12.072;2023-07-28T02:57:21;1.30;;;0.73;;
9330;SDS011;4704;50.470;12.072;2023-07-28T02:59:48;0.77;;;0.68;;
9330;SDS011;4704;50.470;12.072;2023-07-28T03:02:16;1.98;;;0.95;;
9330;SDS011;4704;50.470;12.072;2023-07-28T03:04:44;1.00;;;1.00;;
9330;SDS011;4704;50.470;12.072;2023-07-28T03:07:11;1.02;;;0.90;;
9330;SDS011;4704;50.470;12.072;2023-07-28T03:09:39;1.30;;;0.85;;
9330;SDS011;4704;50.470;12.072;2023-07-28T03:12:09;1.00;;;0.90;;
9330;SDS011;4704;50.470;12.072;2023-07-28T03:14:37;0.90;;;0.90;;
9330;SDS011;4704;50.470;12.072;2023-07-28T03:17:04;1.30;;;0.80;;
9330;SDS011;4704;50.470;12.072;2023-07-28T03:19:32;0.70;;;0.70;;
9330;SDS011;4704;50.470;12.072;2023-07-28T03:22:00;0.70;;;0.70;;
9330;SDS011;4704;50.470;12.072;2023-07-28T03:24:27;0.80;;;0.80;;
9330;SDS011;4704;50.470;12.072;2023-07-28T03:26:55;0.82;;;0.80;;
9330;SDS011;4704;50.470;12.072;2023-07-28T03:29:24;1.45;;;1.00;;
9330;SDS011;4704;50.470;12.072;2023-07-28T03:31:52;0.90;;;0.90;;
9330;SDS011;4704;50.470;12.072;2023-07-28T03:34:20;1.10;;;0.90;;
9330;SDS011;4704;50.470;12.072;2023-07-28T03:36:48;0.90;;;0.80;;
9330;SDS011;4704;50.470;12.072;2023-07-28T03:39:15;0.98;;;0.75;;
9330;SDS011;4704;50.470;12.072;2023-07-28T03:41:43;0.93;;;0.88;;
9330;SDS011;4704;50.470;12.072;2023-07-28T03:44:11;1.08;;;0.70;;
9330;SDS011;4704;50.470;12.072;2023-07-28T03:46:40;1.05;;;0.60;;
9330;SDS011;4704;50.470;12.072;2023-07-28T03:49:07;0.60;;;0.57;;
9330;SDS011;4704;50.470;12.072;2023-07-28T03:51:35;0.77;;;0.77;;
9330;SDS011;4704;50.470;12.072;2023-07-28T03:54:03;0.60;;;0.60;;
9330;SDS011;4704;50.470;12.072;2023-07-28T03:56:31;0.80;;;0.70;;
9330;SDS011;4704;50.470;12.072;2023-07-28T03:58:58;1.85;;;0.70;;
9330;SDS011;4704;50.470;12.072;2023-07-28T04:01:26;1.15;;;0.63;;
9330;SDS011;4704;50.470;12.072;2023-07-28T04:03:55;1.17;;;0.80;;
9330;SDS011;4704;50.470;12.072;2023-07-28T04:09:05;0.70;;;0.63;;
9330;SDS011;4704;50.470;12.072;2023-07-28T04:11:33;1.15;;;0.60;;
9330;SDS011;4704;50.470;12.072;2023-07-28T04:14:00;1.45;;;0.65;;
9330;SDS011;4704;50.470;12.072;2023-07-28T04:16:28;0.73;;;0.70;;
9330;SDS011;4704;50.470;12.072;2023-07-28T04:18:57;1.95;;;0.70;;
9330;SDS011;4704;50.470;12.072;2023-07-28T04:21:25;0.63;;;0.63;;
9330;SDS011;4704;50.470;12.072;2023-07-28T04:23:52;1.40;;;0.73;;
9330;SDS011;4704;50.470;12.072;2023-07-28T04:26:20;0.60;;;0.60;;
9330;SDS011;4704;50.470;12.072;2023-07-28T04:28:47;0.55;;;0.55;;
9330;SDS011;4704;50.470;12.072;2023-07-28T04:31:15;0.50;;;0.50;;
9330;SDS011;4704;50.470;12.072;2023-07-28T04:33:42;0.70;;;0.70;;
9330;SDS011;4704;50.470;12.072;2023-07-28T04:36:11;0.70;;;0.70;;
9330;SDS011;4704;50.470;12.072;2023-07-28T04:38:39;1.15;;;0.68;;
9330;SDS011;4704;50.470;12.072;2023-07-28T04:41:06;0.63;;;0.63;;
9330;SDS011;4704;50.470;12.072;2023-07-28T04:43:34;0.65;;;0.50;;
9330;SDS011;4704;50.470;12.072;2023-07-28T04:46:01;2.00;;;0.60;;
9330;SDS011;4704;50.470;12.072;2023-07-28T04:48:29;0.65;;;0.60;;
9330;SDS011;4704;50.470;12.072;2023-07-28T04:50:56;0.75;;;0.63;;
9330;SDS011;4704;50.470;12.072;2023-07-28T04:53:25;0.70;;;0.70;;
9330;SDS011;4704;50.470;12.072;2023-07-28T04:55:52;1.20;;;0.70;;
9330;SDS011;4704;50.470;12.072;2023-07-28T04:58:20;0.60;;;0.60;;
9330;SDS011;4704;50.470;12.072;2023-07-28T05:00:47;0.90;;;0.60;;
9330;SDS011;4704;50.470;12.072;2023-07-28T05:03:15;1.40;;;0.70;;
9330;SDS011;4704;50.470;12.072;2023-07-28T05:05:42;0.98;;;0.60;;
9330;SDS011;4704;50.470;12.072;2023-07-28T05:08:10;1.10;;;0.50;;
9330;SDS011;4704;50.470;12.072;2023-07-28T05:10:40;0.60;;;0.60;;
9330;SDS011;4704;50.470;12.072;2023-07-28T05:13:08;1.52;;;0.57;;
9330;SDS011;4704;50.470;12.072;2023-07-28T05:15:35;1.95;;;0.60;;
9330;SDS011;4704;50.470;12.072;2023-07-28T05:18:03;0.70;;;0.57;;
9330;SDS011;4704;50.470;12.072;2023-07-28T05:20:30;0.50;;;0.40;;
9330;SDS011;4704;50.470;12.072;2023-07-28T05:22:58;0.73;;;0.50;;
9330;SDS011;4704;50.470;12.072;2023-07-28T05:25:26;0.68;;;0.50;;
9330;SDS011;4704;50.470;12.072;2023-07-28T05:27:54;0.50;;;0.50;;
9330;SDS011;4704;50.470;12.072;2023-07-28T05:30:22;0.50;;;0.50;;
9330;SDS011;4704;50.470;12.072;2023-07-28T05:32:49;0.60;;;0.50;;
9330;SDS011;4704;50.470;12.072;2023-07-28T05:35:17;2.83;;;0.60;;
9330;SDS011;4704;50.470;12.072;2023-07-28T05:37:45;1.17;;;0.60;;
9330;SDS011;4704;50.470;12.072;2023-07-28T05:40:13;0.57;;;0.50;;
9330;SDS011;4704;50.470;12.072;2023-07-28T05:42:42;0.80;;;0.60;;
9330;SDS011;4704;50.470;12.072;2023-07-28T05:45:11;1.10;;;0.80;;
9330;SDS011;4704;50.470;12.072;2023-07-28T05:47:38;0.60;;;0.52;;
9330;SDS011;4704;50.470;12.072;2023-07-28T05:50:06;1.13;;;0.90;;
9330;SDS011;4704;50.470;12.072;2023-07-28T05:52:34;0.80;;;0.73;;
9330;SDS011;4704;50.470;12.072;2023-07-28T05:55:01;1.90;;;0.88;;
9330;SDS011;4704;50.470;12.072;2023-07-28T05:57:29;1.83;;;1.15;;
9330;SDS011;4704;50.470;12.072;2023-07-28T05:59:56;1.83;;;0.80;;
9330;SDS011;4704;50.470;12.072;2023-07-28T06:02:25;1.38;;;1.20;;
9330;SDS011;4704;50.470;12.072;2023-07-28T06:04:52;1.98;;;1.50;;
9330;SDS011;4704;50.470;12.072;2023-07-28T06:07:20;2.92;;;1.00;;
9330;SDS011;4704;50.470;12.072;2023-07-28T06:09:48;1.77;;;1.10;;
9330;SDS011;4704;50.470;12.072;2023-07-28T06:12:15;1.48;;;1.27;;
9330;SDS011;4704;50.470;12.072;2023-07-28T06:14:42;2.83;;;1.20;;
9330;SDS011;4704;50.470;12.072;2023-07-28T06:17:10;1.80;;;1.20;;
9330;SDS011;4704;50.470;12.072;2023-07-28T06:19:39;1.58;;;0.95;;
9330;SDS011;4704;50.470;12.072;2023-07-28T06:22:06;1.88;;;1.00;;
9330;SDS011;4704;50.470;12.072;2023-07-28T06:24:33;1.77;;;1.15;;
9330;SDS011;4704;50.470;12.072;2023-07-28T06:27:01;2.40;;;1.45;;
9330;SDS011;4704;50.470;12.072;2023-07-28T06:29:33;1.90;;;0.90;;
9330;SDS011;4704;50.470;12.072;2023-07-28T06:32:00;1.42;;;0.90;;
9330;SDS011;4704;50.470;12.072;2023-07-28T06:34:28;1.63;;;0.95;;
9330;SDS011;4704;50.470;12.072;2023-07-28T06:36:56;2.00;;;1.23;;
9330;SDS011;4704;50.470;12.072;2023-07-28T06:39:24;1.40;;;1.00;;
9330;SDS011;4704;50.470;12.072;2023-07-28T06:41:52;1.35;;;1.00;;
9330;SDS011;4704;50.470;12.072;2023-07-28T06:44:20;1.75;;;1.15;;
9330;SDS011;4704;50.470;12.072;2023-07-28T06:46:47;1.42;;;0.90;;
9330;SDS011;4704;50.470;12.072;2023-07-28T06:49:15;1.58;;;0.80;;
9330;SDS011;4704;50.470;12.072;2023-07-28T06:51:42;2.55;;;1.23;;
9330;SDS011;4704;50.470;12.072;2023-07-28T06:54:11;1.60;;;1.00;;
9330;SDS011;4704;50.470;12.072;2023-07-28T06:56:38;1.65;;;0.90;;
9330;SDS011;4704;50.470;12.072;2023-07-28T06:59:06;1.23;;;0.95;;
9330;SDS011;4704;50.470;12.072;2023-07-28T07:01:34;1.48;;;0.90;;
9330;SDS011;4704;50.470;12.072;2023-07-28T07:04:01;1.50;;;1.20;;
9330;SDS011;4704;50.470;12.072;2023-07-28T07:06:30;1.20;;;1.00;;
9330;SDS011;4704;50.470;12.072;2023-07-28T07:08:57;1.70;;;1.08;;
9330;SDS011;4704;50.470;12.072;2023-07-28T07:11:26;2.05;;;1.42;;
9330;SDS011;4704;50.470;12.072;2023-07-28T07:13:54;1.70;;;1.10;;
9330;SDS011;4704;50.470;12.072;2023-07-28T07:16:21;1.27;;;0.98;;
9330;SDS011;4704;50.470;12.072;2023-07-28T07:18:48;1.48;;;1.02;;
9330;SDS011;4704;50.470;12.072;2023-07-28T07:21:18;1.20;;;1.05;;
9330;SDS011;4704;50.470;12.072;2023-07-28T07:23:45;0.70;;;0.70;;
9330;SDS011;4704;50.470;12.072;2023-07-28T07:26:12;0.80;;;0.80;;
9330;SDS011;4704;50.470;12.072;2023-07-28T07:28:41;0.93;;;0.70;;
9330;SDS011;4704;50.470;12.072;2023-07-28T07:31:11;0.90;;;0.90;;
9330;SDS011;4704;50.470;12.072;2023-07-28T07:33:39;1.02;;;0.82;;
9330;SDS011;4704;50.470;12.072;2023-07-28T07:36:11;1.65;;;1.10;;
9330;SDS011;4704;50.470;12.072;2023-07-28T07:38:38;1.52;;;1.20;;
9330;SDS011;4704;50.470;12.072;2023-07-28T07:41:07;1.63;;;1.00;;
9330;SDS011;4704;50.470;12.072;2023-07-28T07:43:36;1.20;;;1.10;;
9330;SDS011;4704;50.470;12.072;2023-07-28T07:46:05;1.10;;;1.00;;
9330;SDS011;4704;50.470;12.072;2023-07-28T07:48:32;1.10;;;1.00;;
9330;SDS011;4704;50.470;12.072;2023-07-28T07:51:00;1.25;;;0.90;;
9330;SDS011;4704;50.470;12.072;2023-07-28T07:53:27;0.82;;;0.82;;
9330;SDS011;4704;50.470;12.072;2023-07-28T07:55:55;0.95;;;0.90;;
9330;SDS011;4704;50.470;12.072;2023-07-28T07:58:22;1.25;;;1.15;;
9330;SDS011;4704;50.470;12.072;2023-07-28T08:00:50;1.80;;;1.65;;
9330;SDS011;4704;50.470;12.072;2023-07-28T08:03:19;2.65;;;1.65;;
9330;SDS011;4704;50.470;12.072;2023-07-28T08:05:46;1.98;;;1.70;;
9330;SDS011;4704;50.470;12.072;2023-07-28T08:08:14;1.80;;;1.70;;
9330;SDS011;4704;50.470;12.072;2023-07-28T08:10:42;1.50;;;1.38;;
9330;SDS011;4704;50.470;12.072;2023-07-28T08:13:10;1.70;;;1.60;;
9330;SDS011;4704;50.470;12.072;2023-07-28T08:15:37;1.70;;;1.60;;
9330;SDS011;4704;50.470;12.072;2023-07-28T08:18:05;1.60;;;1.50;;
9330;SDS011;4704;50.470;12.072;2023-07-28T08:20:33;1.73;;;1.40;;
9330;SDS011;4704;50.470;12.072;2023-07-28T08:23:01;1.20;;;1.10;;
9330;SDS011;4704;50.470;12.072;2023-07-28T08:25:29;1.20;;;1.10;;
9330;SDS011;4704;50.470;12.072;2023-07-28T08:27:56;1.88;;;1.20;;
9330;SDS011;4704;50.470;12.072;2023-07-28T08:30:24;1.10;;;1.00;;
9330;SDS011;4704;50.470;12.072;2023-07-28T08:32:51;1.30;;;1.20;;
9330;SDS011;4704;50.470;12.072;2023-07-28T08:35:18;3.08;;;1.38;;
9330;SDS011;4704;50.470;12.072;2023-07-28T08:37:47;1.20;;;1.10;;
9330;SDS011;4704;50.470;12.072;2023-07-28T08:40:16;1.27;;;1.17;;
9330;SDS011;4704;50.470;12.072;2023-07-28T08:42:44;1.20;;;1.10;;
9330;SDS011;4704;50.470;12.072;2023-07-28T08:45:11;1.00;;;1.00;;
9330;SDS011;4704;50.470;12.072;2023-07-28T08:47:39;1.38;;;1.27;;
9330;SDS011;4704;50.470;12.072;2023-07-28T08:50:07;1.20;;;1.10;;
9330;SDS011;4704;50.470;12.072;2023-07-28T08:52:34;1.15;;;1.00;;
9330;SDS011;4704;50.470;12.072;2023-07-28T08:55:04;1.30;;;1.20;;
9330;SDS011;4704;50.470;12.072;2023-07-28T08:57:31;1.30;;;1.15;;
9330;SDS011;4704;50.470;12.072;2023-07-28T08:59:59;1.35;;;1.25;;
9330;SDS011;4704;50.470;12.072;2023-07-28T09:02:33;1.40;;;1.10;;
9330;SDS011;4704;50.470;12.072;2023-07-28T09:05:02;1.02;;;1.02;;
9330;SDS011;4704;50.470;12.072;2023-07-28T09:07:33;1.30;;;1.20;;
9330;SDS011;4704;50.470;12.072;2023-07-28T09:10:02;1.92;;;1.20;;
9330;SDS011;4704;50.470;12.072;2023-07-28T09:12:32;1.50;;;1.40;;
9330;SDS011;4704;50.470;12.072;2023-07-28T09:14:59;1.30;;;1.20;;
9330;SDS011;4704;50.470;12.072;2023-07-28T09:17:27;1.40;;;1.23;;
9330;SDS011;4704;50.470;12.072;2023-07-28T09:19:59;1.45;;;1.35;;
9330;SDS011;4704;50.470;12.072;2023-07-28T09:22:26;2.28;;;1.40;;
9330;SDS011;4704;50.470;12.072;2023-07-28T09:24:56;1.10;;;1.00;;
9330;SDS011;4704;50.470;12.072;2023-07-28T09:27:24;1.50;;;1.10;;
9330;SDS011;4704;50.470;12.072;2023-07-28T09:29:55;1.23;;;1.10;;
9330;SDS011;4704;50.470;12.072;2023-07-28T09:32:27;0.93;;;0.93;;
9330;SDS011;4704;50.470;12.072;2023-07-28T09:35:05;1.35;;;1.25;;
9330;SDS011;4704;50.470;12.072;2023-07-28T09:37:35;2.20;;;1.40;;
9330;SDS011;4704;50.470;12.072;2023-07-28T09:40:04;1.63;;;1.08;;
9330;SDS011;4704;50.470;12.072;2023-07-28T09:42:35;1.83;;;1.10;;
9330;SDS011;4704;50.470;12.072;2023-07-28T09:45:05;1.20;;;1.10;;
9330;SDS011;4704;50.470;12.072;2023-07-28T09:47:33;1.05;;;1.05;;
9330;SDS011;4704;50.470;12.072;2023-07-28T09:50:02;1.33;;;1.10;;
9330;SDS011;4704;50.470;12.072;2023-07-28T09:52:31;1.25;;;1.17;;
9330;SDS011;4704;50.470;12.072;2023-07-28T09:55:02;1.00;;;1.00;;
9330;SDS011;4704;50.470;12.072;2023-07-28T09:57:31;1.10;;;1.10;;
9330;SDS011;4704;50.470;12.072;2023-07-28T10:00:00;1.75;;;1.30;;
9330;SDS011;4704;50.470;12.072;2023-07-28T10:02:31;1.48;;;1.38;;
9330;SDS011;4704;50.470;12.072;2023-07-28T10:04:59;1.30;;;1.20;;
9330;SDS011;4704;50.470;12.072;2023-07-28T10:07:26;1.30;;;1.20;;
9330;SDS011;4704;50.470;12.072;2023-07-28T10:09:54;1.55;;;1.23;;
9330;SDS011;4704;50.470;12.072;2023-07-28T10:12:23;1.05;;;1.05;;
9330;SDS011;4704;50.470;12.072;2023-07-28T10:14:59;1.27;;;1.27;;
9330;SDS011;4704;50.470;12.072;2023-07-28T10:17:31;1.40;;;1.30;;
9330;SDS011;4704;50.470;12.072;2023-07-28T10:20:00;1.58;;;1.33;;
9330;SDS011;4704;50.470;12.072;2023-07-28T10:22:27;1.50;;;1.40;;
9330;SDS011;4704;50.470;12.072;2023-07-28T10:24:55;1.48;;;1.38;;
9330;SDS011;4704;50.470;12.072;2023-07-28T10:27:31;1.67;;;1.58;;
9330;SDS011;4704;50.470;12.072;2023-07-28T10:29:59;1.83;;;1.50;;
9330;SDS011;4704;50.470;12.072;2023-07-28T10:32:28;1.42;;;1.33;;
9330;SDS011;4704;50.470;12.072;2023-07-28T10:35:00;1.55;;;1.45;;
9330;SDS011;4704;50.470;12.072;2023-07-28T10:37:30;1.60;;;1.50;;
9330;SDS011;4704;50.470;12.072;2023-07-28T10:42:46;1.40;;;1.30;;
9330;SDS011;4704;50.470;12.072;2023-07-28T10:45:15;1.50;;;1.40;;
9330;SDS011;4704;50.470;12.072;2023-07-28T10:47:43;1.67;;;1.58;;
9330;SDS011;4704;50.470;12.072;2023-07-28T10:50:12;1.75;;;1.63;;
9330;SDS011;4704;50.470;12.072;2023-07-28T10:52:40;1.55;;;1.45;;
9330;SDS011;4704;50.470;12.072;2023-07-28T10:55:12;1.55;;;1.45;;
9330;SDS011;4704;50.470;12.072;2023-07-28T10:57:40;1.58;;;1.48;;
9330;SDS011;4704;50.470;12.072;2023-07-28T11:00:09;1.52;;;1.33;;
9330;SDS011;4704;50.470;12.072;2023-07-28T11:02:38;1.45;;;1.35;;
9330;SDS011;4704;50.470;12.072;2023-07-28T11:05:09;1.20;;;1.17;;
9330;SDS011;4704;50.470;12.072;2023-07-28T11:07:39;1.20;;;1.20;;
9330;SDS011;4704;50.470;12.072;2023-07-28T11:10:08;1.83;;;1.30;;
9330;SDS011;4704;50.470;12.072;2023-07-28T11:12:39;1.60;;;1.20;;
9330;SDS011;4704;50.470;12.072;2023-07-28T11:15:09;2.28;;;1.20;;
9330;SDS011;4704;50.470;12.072;2023-07-28T11:17:38;1.23;;;1.23;;
9330;SDS011;4704;50.470;12.072;2023-07-28T11:20:06;1.40;;;1.30;;
9330;SDS011;4704;50.470;12.072;2023-07-28T11:22:43;1.85;;;1.52;;
9330;SDS011;4704;50.470;12.072;2023-07-28T11:25:11;1.33;;;1.30;;
9330;SDS011;4704;50.470;12.072;2023-07-28T11:27:39;1.50;;;1.40;;
9330;SDS011;4704;50.470;12.072;2023-07-28T11:30:07;1.50;;;1.40;;
9330;SDS011;4704;50.470;12.072;2023-07-28T11:32:36;1.45;;;1.27;;
9330;SDS011;4704;50.470;12.072;2023-07-28T11:35:04;1.50;;;1.40;;
9330;SDS011;4704;50.470;12.072;2023-07-28T11:37:32;1.50;;;1.40;;
9330;SDS011;4704;50.470;12.072;2023-07-28T11:40:02;1.30;;;1.23;;
9330;SDS011;4704;50.470;12.072;2023-07-28T11:42:32;1.60;;;1.50;;
9330;SDS011;4704;50.470;12.072;2023-07-28T11:45:00;1.52;;;1.40;;
9330;SDS011;4704;50.470;12.072;2023-07-28T11:47:27;1.58;;;1.48;;
9330;SDS011;4704;50.470;12.072;2023-07-28T11:49:55;1.75;;;1.65;;
9330;SDS011;4704;50.470;12.072;2023-07-28T11:52:29;1.48;;;1.40;;
9330;SDS011;4704;50.470;12.072;2023-07-28T11:54:56;1.75;;;1.40;;
9330;SDS011;4704;50.470;12.072;2023-07-28T11:57:25;1.75;;;1.65;;
9330;SDS011;4704;50.470;12.072;2023-07-28T11:59:53;1.90;;;1.75;;
9330;SDS011;4704;50.470;12.072;2023-07-28T12:02:24;1.60;;;1.50;;
9330;SDS011;4704;50.470;12.072;2023-07-28T12:04:52;1.40;;;1.30;;
9330;SDS011;4704;50.470;12.072;2023-07-28T12:07:26;1.60;;;1.50;;
9330;SDS011;4704;50.470;12.072;2023-07-28T12:09:54;1.50;;;1.40;;
9330;SDS011;4704;50.470;12.072;2023-07-28T12:12:26;1.77;;;1.45;;
9330;SDS011;4704;50.470;12.072;2023-07-28T12:14:54;1.25;;;1.17;;
9330;SDS011;4704;50.470;12.072;2023-07-28T12:17:25;1.30;;;1.30;;
9330;SDS011;4704;50.470;12.072;2023-07-28T12:19:57;1.40;;;1.30;;
9330;SDS011;4704;50.470;12.072;2023-07-28T12:22:25;1.50;;;1.40;;
9330;SDS011;4704;50.470;12.072;2023-07-28T12:24:52;1.55;;;1.45;;
9330;SDS011;4704;50.470;12.072;2023-07-28T12:27:20;1.88;;;1.40;;
9330;SDS011;4704;50.470;12.072;2023-07-28T12:29:51;1.27;;;1.20;;
9330;SDS011;4704;50.470;12.072;2023-07-28T12:32:18;1.65;;;1.52;;
9330;SDS011;4704;50.470;12.072;2023-07-28T12:34:47;1.20;;;1.20;;
9330;SDS011;4704;50.470;12.072;2023-07-28T12:37:15;1.60;;;1.50;;
9330;SDS011;4704;50.470;12.072;2023-07-28T12:39:42;1.50;;;1.40;;
9330;SDS011;4704;50.470;12.072;2023-07-28T12:42:10;1.40;;;1.30;;
9330;SDS011;4704;50.470;12.072;2023-07-28T12:44:38;1.60;;;1.50;;
9330;SDS011;4704;50.470;12.072;2023-07-28T12:47:07;1.08;;;1.08;;
9330;SDS011;4704;50.470;12.072;2023-07-28T12:49:35;1.33;;;1.23;;
9330;SDS011;4704;50.470;12.072;2023-07-28T12:52:04;1.48;;;1.40;;
9330;SDS011;4704;50.470;12.072;2023-07-28T12:54:32;1.48;;;1.38;;
9330;SDS011;4704;50.470;12.072;2023-07-28T12:57:00;1.52;;;1.40;;
9330;SDS011;4704;50.470;12.072;2023-07-28T12:59:27;2.42;;;1.30;;
9330;SDS011;4704;50.470;12.072;2023-07-28T13:01:55;1.75;;;1.35;;
9330;SDS011;4704;50.470;12.072;2023-07-28T13:04:24;1.40;;;1.30;;
9330;SDS011;4704;50.470;12.072;2023-07-28T13:06:52;1.30;;;1.20;;
9330;SDS011;4704;50.470;12.072;2023-07-28T13:09:19;1.10;;;1.10;;
9330;SDS011;4704;50.470;12.072;2023-07-28T13:11:47;1.80;;;1.10;;
9330;SDS011;4704;50.470;12.072;2023-07-28T13:14:14;1.27;;;1.17;;
9330;SDS011;4704;50.470;12.072;2023-07-28T13:16:41;1.10;;;1.00;;
9330;SDS011;4704;50.470;12.072;2023-07-28T13:19:09;1.00;;;1.00;;
9330;SDS011;4704;50.470;12.072;2023-07-28T13:21:38;1.13;;;1.13;;
9330;SDS011;4704;50.470;12.072;2023-07-28T13:24:06;1.38;;;1.27;;
9330;SDS011;4704;50.470;12.072;2023-07-28T13:26:34;1.20;;;1.13;;
9330;SDS011;4704;50.470;12.072;2023-07-28T13:29:01;1.33;;;1.20;;
9330;SDS011;4704;50.470;12.072;2023-07-28T13:31:32;1.23;;;1.20;;
9330;SDS011;4704;50.470;12.072;2023-07-28T13:33:59;1.60;;;1.30;;
9330;SDS011;4704;50.470;12.072;2023-07-28T13:36:28;1.50;;;1.10;;
9330;SDS011;4704;50.470;12.072;2023-07-28T13:38:57;1.30;;;1.00;;
9330;SDS011;4704;50.470;12.072;2023-07-28T13:41:24;1.13;;;1.13;;
9330;SDS011;4704;50.470;12.072;2023-07-28T13:43:52;1.13;;;1.13;;
9330;SDS011;4704;50.470;12.072;2023-07-28T13:46:19;1.35;;;1.30;;
9330;SDS011;4704;50.470;12.072;2023-07-28T13:48:46;1.50;;;1.05;;
9330;SDS011;4704;50.470;12.072;2023-07-28T13:51:14;1.05;;;1.05;;
9330;SDS011;4704;50.470;12.072;2023-07-28T13:53:42;1.42;;;1.10;;
9330;SDS011;4704;50.470;12.072;2023-07-28T13:56:10;1.00;;;1.00;;
9330;SDS011;4704;50.470;12.072;2023-07-28T13:58:38;1.08;;;1.08;;
9330;SDS011;4704;50.470;12.072;2023-07-28T14:01:08;1.20;;;1.10;;
9330;SDS011;4704;50.470;12.072;2023-07-28T14:03:35;1.23;;;1.13;;
9330;SDS011;4704;50.470;12.072;2023-07-28T14:06:03;1.30;;;1.20;;
9330;SDS011;4704;50.470;12.072;2023-07-28T14:08:30;1.38;;;1.27;;
9330;SDS011;4704;50.470;12.072;2023-07-28T14:10:57;1.40;;;1.30;;
9330;SDS011;4704;50.470;12.072;2023-07-28T14:13:26;1.27;;;1.20;;
9330;SDS011;4704;50.470;12.072;2023-07-28T14:15:54;1.50;;;1.30;;
9330;SDS011;4704;50.470;12.072;2023-07-28T14:18:21;1.35;;;1.33;;
9330;SDS011;4704;50.470;12.072;2023-07-28T14:20:49;1.27;;;1.10;;
9330;SDS011;4704;50.470;12.072;2023-07-28T14:23:23;1.58;;;1.20;;
9330;SDS011;4704;50.470;12.072;2023-07-28T14:25:50;1.40;;;1.30;;
9330;SDS011;4704;50.470;12.072;2023-07-28T14:28:18;1.30;;;1.20;;
9330;SDS011;4704;50.470;12.072;2023-07-28T14:30:47;1.17;;;1.10;;
9330;SDS011;4704;50.470;12.072;2023-07-28T14:33:16;1.02;;;1.02;;
9330;SDS011;4704;50.470;12.072;2023-07-28T14:35:44;1.42;;;1.33;;
9330;SDS011;4704;50.470;12.072;2023-07-28T14:38:12;1.20;;;1.20;;
9330;SDS011;4704;50.470;12.072;2023-07-28T14:40:40;1.40;;;1.30;;
9330;SDS011;4704;50.470;12.072;2023-07-28T14:43:09;1.15;;;0.90;;
9330;SDS011;4704;50.470;12.072;2023-07-28T14:45:37;3.33;;;1.27;;
9330;SDS011;4704;50.470;12.072;2023-07-28T14:48:05;1.05;;;1.05;;
9330;SDS011;4704;50.470;12.072;2023-07-28T14:50:33;0.90;;;0.90;;
9330;SDS011;4704;50.470;12.072;2023-07-28T14:53:01;1.00;;;1.00;;
9330;SDS011;4704;50.470;12.072;2023-07-28T14:55:28;1.00;;;1.00;;
9330;SDS011;4704;50.470;12.072;2023-07-28T14:57:55;0.98;;;0.98;;
9330;SDS011;4704;50.470;12.072;2023-07-28T15:00:23;1.30;;;1.20;;
9330;SDS011;4704;50.470;12.072;2023-07-28T15:02:50;1.50;;;1.10;;
9330;SDS011;4704;50.470;12.072;2023-07-28T15:05:19;1.00;;;1.00;;
9330;SDS011;4704;50.470;12.072;2023-07-28T15:07:47;1.10;;;1.10;;
9330;SDS011;4704;50.470;12.072;2023-07-28T15:10:14;0.90;;;0.90;;
9330;SDS011;4704;50.470;12.072;2023-07-28T15:12:41;1.20;;;1.10;;